Time;durP1;ratioP1;P1;durP2;ratioP2;P2;SDS_P1;SDS_P2;PMS_P1;PMS_P2;Temp;Humidity;BMP_temperature;BMP_pressure;BME280_temperature;BME280_humidity;BME280_pressure;Samples;Min_cycle;Max_cycle;Signal;HPM_P1;HPM_P2
2024/01/31 00:00:52;;;;;;;7.47;1.37;;;;;;;;;;5028409;28;20026;-69
2024/01/31 00:03:18;;;;;;;6.60;1.30;;;;;;;;;;5026447;28;20079;-69
2024/01/31 00:05:43;;;;;;;6.97;1.30;;;;;;;;;;5024719;28;20032;-69
2024/01/31 00:08:08;;;;;;;4.77;1.30;;;;;;;;;;5030780;28;20029;-69
2024/01/31 00:10:33;;;;;;;3.17;1.00;;;;;;;;;;5027071;28;20054;-69
2024/01/31 00:12:59;;;;;;;8.00;1.27;;;;;;;;;;5024343;28;20116;-69
2024/01/31 00:15:24;;;;;;;8.23;1.63;;;;;;;;;;5022031;28;20358;-68
2024/01/31 00:17:51;;;;;;;9.57;2.00;;;;;;;;;;5021065;28;20030;-69
2024/01/31 00:20:16;;;;;;;8.23;1.73;;;;;;;;;;5023698;28;20018;-70
2024/01/31 00:22:41;;;;;;;5.97;1.50;;;;;;;;;;5022264;28;20041;-69
2024/01/31 00:25:07;;;;;;;6.53;1.43;;;;;;;;;;5022943;28;20111;-70
2024/01/31 00:27:32;;;;;;;7.47;1.30;;;;;;;;;;5026830;28;20041;-69
2024/01/31 00:29:57;;;;;;;7.43;1.77;;;;;;;;;;5022901;28;20100;-69
2024/01/31 00:32:22;;;;;;;8.67;1.97;;;;;;;;;;5021662;28;20079;-69
2024/01/31 00:34:48;;;;;;;5.73;1.50;;;;;;;;;;5020732;28;20030;-68
2024/01/31 00:37:13;;;;;;;5.43;1.60;;;;;;;;;;5026861;28;20036;-69
2024/01/31 00:39:41;;;;;;;7.33;1.47;;;;;;;;;;5025011;28;20498;-69
2024/01/31 00:42:07;;;;;;;7.37;1.80;;;;;;;;;;5025753;28;20017;-68
2024/01/31 00:44:32;;;;;;;7.50;1.40;;;;;;;;;;5022942;28;20749;-69
2024/01/31 00:46:58;;;;;;;4.50;1.30;;;;;;;;;;5029383;28;20026;-69
2024/01/31 00:49:23;;;;;;;5.17;1.50;;;;;;;;;;5027122;28;20385;-69
2024/01/31 00:51:48;;;;;;;5.80;1.47;;;;;;;;;;5027328;28;20087;-69
2024/01/31 00:54:13;;;;;;;6.27;1.30;;;;;;;;;;5025636;28;20671;-68
2024/01/31 00:56:39;;;;;;;4.77;1.20;;;;;;;;;;5026219;28;20029;-69
2024/01/31 00:59:04;;;;;;;4.73;1.13;;;;;;;;;;5026764;28;20029;-69
2024/01/31 01:01:29;;;;;;;4.77;1.23;;;;;;;;;;5027456;28;20374;-69
2024/01/31 01:03:55;;;;;;;3.63;0.90;;;;;;;;;;5031010;28;20017;-69
2024/01/31 01:06:20;;;;;;;6.23;1.40;;;;;;;;;;5029001;28;21277;-68
2024/01/31 01:08:45;;;;;;;8.70;1.20;;;;;;;;;;5029190;28;20022;-68
2024/01/31 01:11:10;;;;;;;3.93;1.00;;;;;;;;;;5020254;28;20025;-68
2024/01/31 01:13:35;;;;;;;9.13;1.27;;;;;;;;;;5027068;28;20398;-69
2024/01/31 01:16:01;;;;;;;5.20;1.30;;;;;;;;;;5029396;28;20046;-69
2024/01/31 01:18:26;;;;;;;6.87;1.50;;;;;;;;;;5030044;28;20065;-69
2024/01/31 01:20:51;;;;;;;4.70;1.20;;;;;;;;;;5027089;28;20018;-69
2024/01/31 01:23:16;;;;;;;6.43;1.10;;;;;;;;;;5031401;28;20478;-69
2024/01/31 01:25:42;;;;;;;4.97;1.20;;;;;;;;;;5024955;28;20029;-69
2024/01/31 01:28:07;;;;;;;5.13;1.10;;;;;;;;;;5026685;28;20041;-68
2024/01/31 01:30:32;;;;;;;4.17;1.10;;;;;;;;;;5027534;28;20467;-69
2024/01/31 01:32:58;;;;;;;4.03;0.90;;;;;;;;;;5028447;28;20068;-69
2024/01/31 01:35:23;;;;;;;3.60;0.93;;;;;;;;;;5027223;28;20056;-70
2024/01/31 01:37:48;;;;;;;3.67;0.83;;;;;;;;;;5025263;28;20017;-68
2024/01/31 01:40:15;;;;;;;2.20;0.97;;;;;;;;;;5028031;28;20064;-70
2024/01/31 01:42:41;;;;;;;1.60;0.83;;;;;;;;;;5014701;28;20474;-70
2024/01/31 01:45:07;;;;;;;0.30;0.30;;;;;;;;;;5023824;28;20032;-68
2024/01/31 01:47:33;;;;;;;0.40;0.40;;;;;;;;;;5031475;28;20025;-68
2024/01/31 01:49:58;;;;;;;0.20;0.20;;;;;;;;;;5026861;28;20539;-70
2024/01/31 01:52:24;;;;;;;0.20;0.20;;;;;;;;;;5027052;28;20017;-69
2024/01/31 01:54:50;;;;;;;0.60;0.40;;;;;;;;;;5027732;28;20072;-70
2024/01/31 01:57:15;;;;;;;0.10;0.10;;;;;;;;;;5030322;28;20020;-70
2024/01/31 01:59:41;;;;;;;0.30;0.30;;;;;;;;;;5029520;28;20025;-69
2024/01/31 02:02:06;;;;;;;0.20;0.20;;;;;;;;;;5028548;28;20018;-68
2024/01/31 02:04:33;;;;;;;0.20;0.20;;;;;;;;;;5025908;28;20359;-69
2024/01/31 02:06:58;;;;;;;0.30;0.30;;;;;;;;;;5016031;28;20470;-69
2024/01/31 02:09:23;;;;;;;0.93;0.90;;;;;;;;;;5024884;28;20088;-68
2024/01/31 02:11:49;;;;;;;0.20;0.20;;;;;;;;;;5029080;28;20022;-69
2024/01/31 02:14:14;;;;;;;0.23;0.23;;;;;;;;;;5031258;28;20021;-68
2024/01/31 02:16:39;;;;;;;0.20;0.20;;;;;;;;;;5032181;28;20088;-69
2024/01/31 02:19:04;;;;;;;0.20;0.20;;;;;;;;;;5029260;28;20021;-68
2024/01/31 02:21:30;;;;;;;0.20;0.20;;;;;;;;;;5022141;28;20022;-69
2024/01/31 02:23:56;;;;;;;0.20;0.20;;;;;;;;;;5026006;28;20081;-69
2024/01/31 02:26:21;;;;;;;0.20;0.20;;;;;;;;;;5030050;28;20025;-69
2024/01/31 02:28:46;;;;;;;0.20;0.20;;;;;;;;;;5026219;28;20119;-69
2024/01/31 02:31:11;;;;;;;0.20;0.20;;;;;;;;;;5027295;28;20029;-68
2024/01/31 02:33:37;;;;;;;0.30;0.30;;;;;;;;;;5024319;28;20434;-70
2024/01/31 02:36:02;;;;;;;0.27;0.27;;;;;;;;;;5021525;28;20017;-68
2024/01/31 02:38:27;;;;;;;0.20;0.20;;;;;;;;;;5027619;28;20017;-69
2024/01/31 02:40:52;;;;;;;0.20;0.20;;;;;;;;;;5025500;28;20019;-68
2024/01/31 02:43:18;;;;;;;0.20;0.20;;;;;;;;;;5026800;28;20022;-69
2024/01/31 02:45:43;;;;;;;0.37;0.37;;;;;;;;;;5027335;28;20034;-67
2024/01/31 02:48:09;;;;;;;0.20;0.20;;;;;;;;;;5027057;28;21292;-68
2024/01/31 02:50:34;;;;;;;0.20;0.20;;;;;;;;;;5027552;28;20474;-70
2024/01/31 02:53:00;;;;;;;1.90;0.77;;;;;;;;;;5023096;28;20036;-69
2024/01/31 02:55:25;;;;;;;0.50;0.50;;;;;;;;;;5030175;28;20110;-69
2024/01/31 02:57:50;;;;;;;0.30;0.30;;;;;;;;;;5029937;28;20391;-68
2024/01/31 03:00:16;;;;;;;0.30;0.30;;;;;;;;;;5028676;28;20026;-69
2024/01/31 03:02:44;;;;;;;8.70;1.40;;;;;;;;;;5026147;28;20042;-69
2024/01/31 03:05:10;;;;;;;0.20;0.20;;;;;;;;;;5025968;28;20025;-69
2024/01/31 03:07:36;;;;;;;0.20;0.20;;;;;;;;;;5024087;28;20085;-69
2024/01/31 03:10:01;;;;;;;0.20;0.20;;;;;;;;;;5026102;28;20025;-68
2024/01/31 03:12:26;;;;;;;0.20;0.20;;;;;;;;;;5028625;28;20025;-69
2024/01/31 03:14:51;;;;;;;0.20;0.20;;;;;;;;;;5029404;28;20022;-69
2024/01/31 03:17:17;;;;;;;0.27;0.27;;;;;;;;;;5025386;28;20050;-69
2024/01/31 03:19:42;;;;;;;0.20;0.20;;;;;;;;;;5017520;28;20014;-69
2024/01/31 03:22:09;;;;;;;0.20;0.20;;;;;;;;;;5028524;28;20075;-69
2024/01/31 03:24:34;;;;;;;0.20;0.20;;;;;;;;;;5031742;28;20032;-68
2024/01/31 03:26:59;;;;;;;0.20;0.20;;;;;;;;;;5027177;28;20013;-69
2024/01/31 03:29:25;;;;;;;0.30;0.30;;;;;;;;;;5023111;28;20053;-69
2024/01/31 03:31:50;;;;;;;0.20;0.20;;;;;;;;;;5027311;28;20021;-78
2024/01/31 03:34:15;;;;;;;0.20;0.20;;;;;;;;;;5038341;28;20023;-75
2024/01/31 03:36:41;;;;;;;0.20;0.20;;;;;;;;;;5041572;28;20056;-75
2024/01/31 03:39:06;;;;;;;0.20;0.20;;;;;;;;;;5039784;28;20028;-78
2024/01/31 03:41:31;;;;;;;0.20;0.20;;;;;;;;;;5036511;28;20032;-77
2024/01/31 03:43:57;;;;;;;7.70;1.47;;;;;;;;;;5034891;28;20044;-78
2024/01/31 03:46:22;;;;;;;5.83;1.10;;;;;;;;;;5046694;28;20108;-76
2024/01/31 03:48:47;;;;;;;4.63;1.20;;;;;;;;;;5044443;28;20512;-75
2024/01/31 03:51:19;;;;;;;8.27;1.40;;;;;;;;;;5039847;28;20044;-78
2024/01/31 03:53:45;;;;;;;4.67;1.00;;;;;;;;;;5041685;28;20068;-76
2024/01/31 03:56:10;;;;;;;5.00;1.27;;;;;;;;;;5038534;28;20104;-79
2024/01/31 03:58:35;;;;;;;6.03;1.00;;;;;;;;;;5034160;28;20014;-77
2024/01/31 04:01:01;;;;;;;5.27;1.17;;;;;;;;;;5031274;28;20083;-79
2024/01/31 04:03:26;;;;;;;7.20;1.20;;;;;;;;;;5029774;28;20033;-77
2024/01/31 04:05:51;;;;;;;3.77;1.40;;;;;;;;;;5027537;28;20042;-76
2024/01/31 04:08:16;;;;;;;8.53;1.23;;;;;;;;;;5028784;28;20025;-75
2024/01/31 04:10:42;;;;;;;6.13;1.30;;;;;;;;;;5026609;28;20036;-78
2024/01/31 04:13:07;;;;;;;6.40;1.37;;;;;;;;;;5027790;28;20017;-77
2024/01/31 04:15:32;;;;;;;3.50;1.33;;;;;;;;;;5021270;28;20378;-77
2024/01/31 04:17:58;;;;;;;5.20;1.57;;;;;;;;;;5027106;28;20059;-77
2024/01/31 04:20:23;;;;;;;9.97;1.57;;;;;;;;;;5027916;28;20057;-78
2024/01/31 04:22:48;;;;;;;9.87;1.43;;;;;;;;;;5029393;28;20537;-78
2024/01/31 04:25:14;;;;;;;3.50;1.40;;;;;;;;;;5027924;28;20504;-78
2024/01/31 04:27:39;;;;;;;7.00;1.50;;;;;;;;;;5016127;28;20030;-78
2024/01/31 04:30:07;;;;;;;5.83;1.50;;;;;;;;;;5024971;28;20014;-77
2024/01/31 04:32:33;;;;;;;6.20;1.70;;;;;;;;;;5031919;28;20378;-76
2024/01/31 04:34:58;;;;;;;7.83;1.90;;;;;;;;;;5037675;28;20025;-76
2024/01/31 04:37:23;;;;;;;12.70;1.80;;;;;;;;;;5038633;28;20029;-76
2024/01/31 04:39:51;;;;;;;9.07;1.70;;;;;;;;;;5030338;28;20638;-77
2024/01/31 04:42:16;;;;;;;5.30;1.43;;;;;;;;;;5031652;28;20100;-68
2024/01/31 04:44:45;;;;;;;7.40;1.70;;;;;;;;;;5031547;28;20493;-67
2024/01/31 04:47:10;;;;;;;5.20;1.50;;;;;;;;;;5029289;28;20148;-68
2024/01/31 04:49:35;;;;;;;3.97;1.30;;;;;;;;;;5029450;28;20793;-68
2024/01/31 04:52:01;;;;;;;5.53;1.50;;;;;;;;;;5029169;28;20248;-69
2024/01/31 04:54:26;;;;;;;4.70;1.80;;;;;;;;;;5025902;28;20018;-69
2024/01/31 04:56:51;;;;;;;5.60;1.40;;;;;;;;;;5030374;28;20032;-69
2024/01/31 04:59:16;;;;;;;5.87;1.60;;;;;;;;;;5032408;28;20018;-69
2024/01/31 05:01:43;;;;;;;4.73;1.70;;;;;;;;;;5028216;28;20021;-69
2024/01/31 05:04:08;;;;;;;8.60;1.53;;;;;;;;;;5027937;28;20458;-68
2024/01/31 05:06:33;;;;;;;4.00;1.60;;;;;;;;;;5031348;28;20079;-68
2024/01/31 05:08:59;;;;;;;5.37;1.20;;;;;;;;;;5030029;28;20029;-69
2024/01/31 05:11:24;;;;;;;6.20;1.40;;;;;;;;;;5030289;28;20021;-68
2024/01/31 05:13:49;;;;;;;5.80;1.10;;;;;;;;;;5028960;28;20371;-68
2024/01/31 05:16:14;;;;;;;6.40;1.10;;;;;;;;;;5027660;28;20045;-69
2024/01/31 05:18:40;;;;;;;5.03;1.13;;;;;;;;;;5032217;28;20029;-68
2024/01/31 05:21:08;;;;;;;6.97;1.10;;;;;;;;;;5014028;28;20031;-68
2024/01/31 05:23:33;;;;;;;8.33;1.20;;;;;;;;;;5028845;28;20413;-68
2024/01/31 05:25:58;;;;;;;3.87;1.20;;;;;;;;;;5023043;28;20080;-68
2024/01/31 05:28:23;;;;;;;5.23;1.20;;;;;;;;;;5029747;28;20107;-69
2024/01/31 05:30:49;;;;;;;4.77;1.30;;;;;;;;;;5029962;28;20104;-69
2024/01/31 05:33:14;;;;;;;4.50;1.40;;;;;;;;;;5032368;28;20028;-69
2024/01/31 05:35:39;;;;;;;4.73;1.10;;;;;;;;;;5026022;28;20441;-69
2024/01/31 05:38:05;;;;;;;5.37;1.30;;;;;;;;;;5023683;28;20018;-68
2024/01/31 05:40:30;;;;;;;4.67;1.50;;;;;;;;;;5027874;28;20022;-68
2024/01/31 05:42:56;;;;;;;7.63;1.23;;;;;;;;;;5032805;28;20104;-69
2024/01/31 05:45:21;;;;;;;5.20;1.33;;;;;;;;;;5029114;28;20389;-68
2024/01/31 05:47:46;;;;;;;7.33;1.03;;;;;;;;;;5026299;28;20025;-69
2024/01/31 05:50:12;;;;;;;5.67;1.37;;;;;;;;;;5022138;28;20022;-68
2024/01/31 05:52:37;;;;;;;5.67;1.00;;;;;;;;;;5038245;28;20025;-75
2024/01/31 05:55:02;;;;;;;7.47;1.70;;;;;;;;;;5046092;28;20458;-75
2024/01/31 05:57:28;;;;;;;5.77;1.00;;;;;;;;;;5040225;28;20075;-75
2024/01/31 05:59:53;;;;;;;4.33;1.10;;;;;;;;;;5032185;28;20032;-76
2024/01/31 06:02:18;;;;;;;2.40;0.90;;;;;;;;;;5027920;28;20029;-75
2024/01/31 06:04:43;;;;;;;4.27;1.03;;;;;;;;;;5036847;28;20030;-78
2024/01/31 06:07:10;;;;;;;2.83;0.90;;;;;;;;;;5036716;28;20470;-76
2024/01/31 06:09:35;;;;;;;6.43;1.40;;;;;;;;;;5032139;28;20022;-75
2024/01/31 06:12:00;;;;;;;4.73;1.20;;;;;;;;;;5033800;28;20508;-75
2024/01/31 06:14:26;;;;;;;5.67;1.10;;;;;;;;;;5031476;28;20095;-76
2024/01/31 06:16:51;;;;;;;4.37;1.00;;;;;;;;;;5032690;28;20395;-76
2024/01/31 06:19:16;;;;;;;5.67;1.10;;;;;;;;;;5028292;28;20025;-74
2024/01/31 06:21:41;;;;;;;4.63;1.43;;;;;;;;;;5026657;28;20876;-74
2024/01/31 06:24:07;;;;;;;5.83;1.00;;;;;;;;;;5025532;28;20024;-73
2024/01/31 06:26:37;;;;;;;4.43;0.90;;;;;;;;;;5025785;28;20024;-72
2024/01/31 06:29:02;;;;;;;5.27;1.10;;;;;;;;;;5029007;28;20540;-74
2024/01/31 06:31:28;;;;;;;5.03;1.20;;;;;;;;;;5026872;28;20025;-73
2024/01/31 06:33:54;;;;;;;5.03;1.30;;;;;;;;;;5024477;28;20022;-73
2024/01/31 06:36:20;;;;;;;6.50;1.23;;;;;;;;;;5020717;28;20040;-73
2024/01/31 06:38:45;;;;;;;7.27;1.37;;;;;;;;;;5016897;28;20017;-74
2024/01/31 06:41:17;;;;;;;5.17;1.53;;;;;;;;;;5030949;28;20025;-74
2024/01/31 06:43:43;;;;;;;6.33;1.20;;;;;;;;;;5029992;28;20478;-73
2024/01/31 06:46:08;;;;;;;5.33;1.33;;;;;;;;;;5019893;28;20022;-73
2024/01/31 06:48:33;;;;;;;6.43;1.30;;;;;;;;;;5020553;28;20032;-73
2024/01/31 06:50:59;;;;;;;4.47;1.27;;;;;;;;;;5027773;28;20156;-75
2024/01/31 06:53:24;;;;;;;5.93;1.20;;;;;;;;;;5027742;28;20466;-74
2024/01/31 06:55:49;;;;;;;9.10;1.60;;;;;;;;;;5028091;28;20025;-73
2024/01/31 06:58:15;;;;;;;8.67;1.50;;;;;;;;;;5019567;28;20021;-74
2024/01/31 07:00:40;;;;;;;4.67;1.67;;;;;;;;;;5023202;28;20034;-74
2024/01/31 07:03:05;;;;;;;9.27;1.57;;;;;;;;;;5015301;28;20018;-75
2024/01/31 07:05:31;;;;;;;7.07;1.60;;;;;;;;;;5027168;28;20049;-74
2024/01/31 07:07:56;;;;;;;5.90;1.60;;;;;;;;;;5027023;28;20053;-74
2024/01/31 07:10:21;;;;;;;5.63;1.67;;;;;;;;;;5026976;28;20022;-74
2024/01/31 07:12:46;;;;;;;5.70;2.03;;;;;;;;;;5013950;28;20048;-74
2024/01/31 07:15:12;;;;;;;5.87;1.50;;;;;;;;;;5027735;28;20113;-75
2024/01/31 07:17:37;;;;;;;5.80;1.57;;;;;;;;;;5025250;28;20046;-74
2024/01/31 07:20:03;;;;;;;7.67;1.70;;;;;;;;;;5030845;28;20068;-74
2024/01/31 07:22:29;;;;;;;7.73;1.67;;;;;;;;;;5025211;28;20071;-75
2024/01/31 07:24:54;;;;;;;6.57;1.70;;;;;;;;;;5029128;28;20025;-76
2024/01/31 07:27:19;;;;;;;4.10;1.63;;;;;;;;;;5026160;28;20033;-75
2024/01/31 07:29:46;;;;;;;5.03;1.60;;;;;;;;;;5027108;28;20162;-76
2024/01/31 07:32:11;;;;;;;7.77;1.50;;;;;;;;;;5029039;28;20075;-76
2024/01/31 07:34:36;;;;;;;7.03;1.80;;;;;;;;;;5023631;28;20022;-74
2024/01/31 07:37:03;;;;;;;4.87;1.50;;;;;;;;;;5027857;28;20024;-76
2024/01/31 07:39:28;;;;;;;5.77;1.57;;;;;;;;;;5027963;28;20537;-76
2024/01/31 07:41:54;;;;;;;6.50;1.53;;;;;;;;;;5031927;28;20014;-75
2024/01/31 07:44:19;;;;;;;7.87;1.93;;;;;;;;;;5024377;28;20446;-76
2024/01/31 07:46:44;;;;;;;9.50;1.70;;;;;;;;;;5033371;28;20037;-77
2024/01/31 07:49:09;;;;;;;5.33;1.30;;;;;;;;;;5035264;28;20052;-76
2024/01/31 07:51:42;;;;;;;9.33;1.60;;;;;;;;;;5036966;28;20069;-75
2024/01/31 07:54:07;;;;;;;5.10;1.87;;;;;;;;;;5040948;28;20037;-77
2024/01/31 07:56:32;;;;;;;4.53;1.37;;;;;;;;;;5031921;28;20028;-77
2024/01/31 07:58:58;;;;;;;9.03;1.43;;;;;;;;;;5041380;28;20022;-77
2024/01/31 08:01:23;;;;;;;5.83;1.50;;;;;;;;;;5010423;28;20557;-74
2024/01/31 08:03:48;;;;;;;6.13;1.40;;;;;;;;;;5018318;28;20068;-74
2024/01/31 08:06:13;;;;;;;6.63;2.13;;;;;;;;;;5018523;28;20108;-74
2024/01/31 08:08:39;;;;;;;7.53;1.63;;;;;;;;;;5025371;28;20026;-76
2024/01/31 08:11:05;;;;;;;6.70;1.57;;;;;;;;;;5028531;28;20770;-73
2024/01/31 08:13:30;;;;;;;5.63;1.40;;;;;;;;;;5021082;28;20733;-75
2024/01/31 08:15:55;;;;;;;6.20;1.60;;;;;;;;;;5018119;28;20096;-75
2024/01/31 08:18:20;;;;;;;6.17;1.60;;;;;;;;;;5022025;28;20025;-77
2024/01/31 08:20:46;;;;;;;5.07;1.50;;;;;;;;;;5018119;28;20454;-76
2024/01/31 08:23:11;;;;;;;6.40;1.40;;;;;;;;;;5019245;28;20014;-76
2024/01/31 08:25:36;;;;;;;4.23;1.53;;;;;;;;;;5019323;28;20056;-75
2024/01/31 08:28:02;;;;;;;4.17;1.47;;;;;;;;;;5017505;28;20053;-72
2024/01/31 08:30:27;;;;;;;3.03;1.20;;;;;;;;;;5018136;28;20026;-76
2024/01/31 08:32:52;;;;;;;4.50;1.27;;;;;;;;;;5018269;28;20108;-74
2024/01/31 08:35:17;;;;;;;4.37;1.20;;;;;;;;;;5018957;28;20024;-72
2024/01/31 08:37:43;;;;;;;2.30;1.13;;;;;;;;;;5017496;28;20116;-76
2024/01/31 08:40:10;;;;;;;4.10;1.30;;;;;;;;;;5017907;28;20022;-74
2024/01/31 08:42:38;;;;;;;4.30;1.53;;;;;;;;;;5017321;28;20055;-75
2024/01/31 08:45:04;;;;;;;3.30;1.60;;;;;;;;;;5017230;28;20018;-75
2024/01/31 08:47:29;;;;;;;3.47;1.90;;;;;;;;;;5017854;28;20021;-72
2024/01/31 08:49:55;;;;;;;6.97;1.70;;;;;;;;;;5017682;28;20120;-73
2024/01/31 08:52:20;;;;;;;3.60;1.63;;;;;;;;;;5017449;28;20036;-74
2024/01/31 08:54:45;;;;;;;4.03;1.53;;;;;;;;;;5018185;28;20589;-71
2024/01/31 08:57:11;;;;;;;4.37;2.00;;;;;;;;;;5016881;28;20052;-73
2024/01/31 08:59:36;;;;;;;4.53;1.80;;;;;;;;;;5001738;28;20099;-74
2024/01/31 09:02:03;;;;;;;4.77;1.80;;;;;;;;;;5016943;28;20032;-72
2024/01/31 09:04:28;;;;;;;3.67;1.70;;;;;;;;;;5016990;28;20025;-73
2024/01/31 09:06:53;;;;;;;4.07;1.80;;;;;;;;;;5017116;28;20092;-74
2024/01/31 09:09:19;;;;;;;6.40;2.13;;;;;;;;;;5015651;28;20035;-73
2024/01/31 09:11:44;;;;;;;6.17;2.00;;;;;;;;;;5004057;28;20021;-74
2024/01/31 09:14:09;;;;;;;4.67;2.17;;;;;;;;;;5019113;28;20026;-72
2024/01/31 09:16:34;;;;;;;4.97;2.50;;;;;;;;;;5017988;28;20046;-74
2024/01/31 09:19:00;;;;;;;4.97;2.80;;;;;;;;;;5016808;28;20026;-72
2024/01/31 09:21:27;;;;;;;6.87;3.40;;;;;;;;;;5018019;28;20020;-74
2024/01/31 09:23:52;;;;;;;5.63;3.03;;;;;;;;;;5010212;28;20098;-75
2024/01/31 09:26:17;;;;;;;7.00;2.90;;;;;;;;;;5000238;28;20018;-75
2024/01/31 09:28:43;;;;;;;6.77;3.23;;;;;;;;;;5004502;28;20080;-73
2024/01/31 09:31:08;;;;;;;5.83;3.10;;;;;;;;;;5003180;28;20104;-74
2024/01/31 09:33:33;;;;;;;6.50;3.17;;;;;;;;;;5001267;28;20058;-72
2024/01/31 09:35:58;;;;;;;5.27;3.20;;;;;;;;;;5007408;28;20112;-72
2024/01/31 09:38:25;;;;;;;5.37;2.80;;;;;;;;;;5000721;28;20063;-74
2024/01/31 09:40:51;;;;;;;5.67;2.80;;;;;;;;;;4999920;28;20365;-74
2024/01/31 09:43:16;;;;;;;7.23;3.23;;;;;;;;;;5006251;28;20026;-75
2024/01/31 09:45:42;;;;;;;6.80;2.80;;;;;;;;;;5005212;28;20026;-72
2024/01/31 09:48:08;;;;;;;10.63;5.43;;;;;;;;;;5005837;28;20639;-75
2024/01/31 09:50:33;;;;;;;7.57;4.30;;;;;;;;;;4998858;28;20030;-72
2024/01/31 09:53:00;;;;;;;8.93;4.10;;;;;;;;;;5001037;28;20026;-75
2024/01/31 09:55:27;;;;;;;7.93;2.33;;;;;;;;;;5006880;28;20033;-76
2024/01/31 09:57:52;;;;;;;4.97;2.40;;;;;;;;;;5007848;28;20381;-73
2024/01/31 10:00:18;;;;;;;7.07;2.53;;;;;;;;;;4998472;28;20026;-72
2024/01/31 10:02:44;;;;;;;7.50;2.20;;;;;;;;;;5008561;28;20572;-75
2024/01/31 10:05:09;;;;;;;4.83;1.80;;;;;;;;;;4999434;28;20048;-74
2024/01/31 10:07:38;;;;;;;3.53;1.80;;;;;;;;;;4997082;28;20021;-73
2024/01/31 10:10:06;;;;;;;4.97;1.60;;;;;;;;;;4987833;28;20044;-72
2024/01/31 10:12:31;;;;;;;4.37;1.70;;;;;;;;;;5006565;28;21135;-73
2024/01/31 10:14:57;;;;;;;3.27;1.60;;;;;;;;;;5006315;28;20113;-74
2024/01/31 10:17:22;;;;;;;5.03;2.10;;;;;;;;;;4997851;28;20155;-72
2024/01/31 10:19:48;;;;;;;6.50;2.03;;;;;;;;;;4997286;28;20014;-73
2024/01/31 10:22:13;;;;;;;5.87;2.27;;;;;;;;;;4999818;28;20027;-72
2024/01/31 10:24:39;;;;;;;6.03;2.20;;;;;;;;;;4997668;28;20028;-72
2024/01/31 10:27:06;;;;;;;5.10;2.30;;;;;;;;;;5005356;28;20032;-73
2024/01/31 10:29:32;;;;;;;5.87;2.20;;;;;;;;;;4997413;28;20841;-74
2024/01/31 10:31:57;;;;;;;4.87;1.90;;;;;;;;;;4999205;28;20033;-73
2024/01/31 10:34:23;;;;;;;6.33;2.20;;;;;;;;;;5004055;28;20013;-73
2024/01/31 10:36:49;;;;;;;4.90;2.23;;;;;;;;;;4989926;28;20029;-72
2024/01/31 10:39:17;;;;;;;5.23;2.27;;;;;;;;;;5002485;28;20029;-72
2024/01/31 10:41:43;;;;;;;6.03;2.10;;;;;;;;;;4997267;28;20065;-72
2024/01/31 10:44:10;;;;;;;5.70;2.00;;;;;;;;;;5000872;28;20133;-71
2024/01/31 10:46:35;;;;;;;5.53;1.90;;;;;;;;;;5003830;28;20034;-71
2024/01/31 10:49:01;;;;;;;4.23;1.93;;;;;;;;;;4996722;28;20039;-71
2024/01/31 10:51:27;;;;;;;6.23;1.97;;;;;;;;;;4997858;28;20116;-71
2024/01/31 10:53:53;;;;;;;4.10;1.57;;;;;;;;;;4998781;28;20103;-71
2024/01/31 10:56:19;;;;;;;3.50;1.70;;;;;;;;;;5006147;28;20026;-71
2024/01/31 10:58:45;;;;;;;5.37;1.80;;;;;;;;;;5006908;28;20029;-71
2024/01/31 11:01:14;;;;;;;5.77;2.33;;;;;;;;;;4990164;28;20109;-70
2024/01/31 11:03:43;;;;;;;8.97;2.70;;;;;;;;;;5002553;28;20025;-70
2024/01/31 11:06:08;;;;;;;5.70;1.70;;;;;;;;;;5005173;28;20472;-62
2024/01/31 11:08:34;;;;;;;4.17;2.00;;;;;;;;;;4997324;28;20029;-63
2024/01/31 11:10:59;;;;;;;4.80;1.60;;;;;;;;;;5000216;28;20026;-63
2024/01/31 11:13:24;;;;;;;9.90;1.83;;;;;;;;;;4994928;28;20044;-62
2024/01/31 11:15:49;;;;;;;5.43;1.90;;;;;;;;;;4996007;28;20712;-63
2024/01/31 11:18:15;;;;;;;6.97;2.03;;;;;;;;;;4981878;28;20038;-63
2024/01/31 11:20:47;;;;;;;3.47;1.50;;;;;;;;;;4988530;28;20029;-62
2024/01/31 11:25:48;;;;;;;5.10;2.07;;;;;;;;;;5037650;23;20062;-61
2024/01/31 11:28:15;;;;;;;6.97;4.17;;;;;;;;;;4996831;28;20037;-59
2024/01/31 11:30:40;;;;;;;6.80;2.60;;;;;;;;;;5004602;28;20026;-60
2024/01/31 11:33:05;;;;;;;7.93;3.40;;;;;;;;;;5002709;28;20021;-59
2024/01/31 11:35:31;;;;;;;6.27;2.73;;;;;;;;;;5007711;28;20429;-59
2024/01/31 11:37:57;;;;;;;3.40;1.53;;;;;;;;;;5011527;28;20032;-59
2024/01/31 11:40:22;;;;;;;7.70;2.43;;;;;;;;;;5007844;28;20524;-59
2024/01/31 11:42:47;;;;;;;4.13;1.70;;;;;;;;;;5004715;28;20048;-60
2024/01/31 11:45:13;;;;;;;4.73;1.63;;;;;;;;;;5004705;28;20091;-59
2024/01/31 11:47:39;;;;;;;6.23;2.17;;;;;;;;;;5011542;28;20065;-60
2024/01/31 11:50:05;;;;;;;4.40;1.90;;;;;;;;;;5009709;28;20028;-60
2024/01/31 11:52:30;;;;;;;4.73;2.00;;;;;;;;;;5007197;28;20675;-59
2024/01/31 11:54:56;;;;;;;7.37;2.60;;;;;;;;;;5007945;28;20058;-63
2024/01/31 11:57:21;;;;;;;4.90;1.93;;;;;;;;;;5004707;28;20488;-63
2024/01/31 11:59:46;;;;;;;5.33;2.30;;;;;;;;;;5011312;28;20029;-64
2024/01/31 12:02:11;;;;;;;6.23;2.20;;;;;;;;;;5008740;28;20021;-63
2024/01/31 12:04:37;;;;;;;4.70;2.30;;;;;;;;;;5006375;28;20022;-61
2024/01/31 12:07:05;;;;;;;7.00;2.70;;;;;;;;;;5008576;28;20026;-59
2024/01/31 12:09:34;;;;;;;6.20;2.67;;;;;;;;;;5003886;28;20113;-61
2024/01/31 12:11:59;;;;;;;6.80;2.90;;;;;;;;;;5010497;28;20037;-59
2024/01/31 12:14:25;;;;;;;6.77;2.63;;;;;;;;;;5010633;28;20037;-59
2024/01/31 12:16:50;;;;;;;4.93;2.80;;;;;;;;;;5001284;28;20117;-60
2024/01/31 12:19:19;;;;;;;7.70;3.60;;;;;;;;;;5010652;28;20029;-59
2024/01/31 12:21:44;;;;;;;8.30;4.07;;;;;;;;;;5010458;28;20087;-59
2024/01/31 12:24:09;;;;;;;10.57;4.57;;;;;;;;;;5008463;28;20041;-60
2024/01/31 12:26:35;;;;;;;7.37;3.60;;;;;;;;;;5006931;28;20710;-60
2024/01/31 12:29:00;;;;;;;5.20;3.00;;;;;;;;;;5001244;28;20603;-59
2024/01/31 12:31:26;;;;;;;7.70;4.00;;;;;;;;;;4993360;28;20109;-61
2024/01/31 12:33:51;;;;;;;5.37;3.50;;;;;;;;;;4989543;28;20112;-61
2024/01/31 12:36:17;;;;;;;6.13;4.03;;;;;;;;;;4982793;28;20038;-60
2024/01/31 12:38:42;;;;;;;5.73;3.70;;;;;;;;;;4986000;28;20483;-61
2024/01/31 12:41:07;;;;;;;7.20;4.00;;;;;;;;;;4985355;28;20029;-59
2024/01/31 12:43:32;;;;;;;6.83;3.70;;;;;;;;;;4984710;28;20573;-59
2024/01/31 12:45:58;;;;;;;7.17;4.20;;;;;;;;;;4990540;28;20069;-60
2024/01/31 12:48:23;;;;;;;8.87;4.37;;;;;;;;;;4986285;28;20034;-62
2024/01/31 12:50:50;;;;;;;6.43;4.47;;;;;;;;;;4995799;28;20041;-60
2024/01/31 12:53:16;;;;;;;7.97;4.37;;;;;;;;;;4994950;28;20935;-62
2024/01/31 12:55:41;;;;;;;6.33;3.67;;;;;;;;;;5004884;28;20034;-66
2024/01/31 12:58:06;;;;;;;6.07;4.10;;;;;;;;;;5005466;28;20022;-66
2024/01/31 13:00:32;;;;;;;7.77;4.20;;;;;;;;;;5004643;28;20112;-65
2024/01/31 13:02:57;;;;;;;6.83;4.60;;;;;;;;;;5004488;28;20109;-66
2024/01/31 13:05:22;;;;;;;7.07;4.13;;;;;;;;;;5004669;28;20030;-64
2024/01/31 13:07:47;;;;;;;7.13;4.10;;;;;;;;;;5004349;28;20651;-65
2024/01/31 13:10:17;;;;;;;8.57;4.90;;;;;;;;;;5004099;28;20608;-65
2024/01/31 13:12:43;;;;;;;13.07;4.13;;;;;;;;;;5003874;28;20036;-64
2024/01/31 13:15:08;;;;;;;7.57;5.10;;;;;;;;;;5004480;28;20022;-65
2024/01/31 13:17:33;;;;;;;7.00;4.67;;;;;;;;;;5003501;28;20030;-66
2024/01/31 13:19:58;;;;;;;11.83;5.00;;;;;;;;;;5004294;28;20061;-66
2024/01/31 13:22:24;;;;;;;10.63;5.13;;;;;;;;;;5003382;28;20129;-66
2024/01/31 13:24:49;;;;;;;7.70;4.50;;;;;;;;;;5001929;28;20062;-60
2024/01/31 13:27:14;;;;;;;6.23;3.73;;;;;;;;;;5003245;28;20124;-59
2024/01/31 13:29:40;;;;;;;5.97;3.90;;;;;;;;;;5003939;28;20036;-60
2024/01/31 13:32:05;;;;;;;6.70;3.53;;;;;;;;;;5003475;28;20029;-60
2024/01/31 13:34:30;;;;;;;19.37;3.50;;;;;;;;;;5002639;28;20021;-60
2024/01/31 13:36:56;;;;;;;6.80;3.10;;;;;;;;;;5003808;28;20426;-62
2024/01/31 13:39:22;;;;;;;5.80;3.10;;;;;;;;;;5002637;28;20026;-61
2024/01/31 13:41:47;;;;;;;7.97;3.30;;;;;;;;;;5002942;28;20430;-60
2024/01/31 13:44:13;;;;;;;5.27;3.10;;;;;;;;;;5003536;28;20033;-60
2024/01/31 13:46:41;;;;;;;5.53;3.63;;;;;;;;;;5001523;28;20033;-65
2024/01/31 13:49:06;;;;;;;4.57;2.50;;;;;;;;;;5001509;28;20033;-65
2024/01/31 13:51:41;;;;;;;7.10;3.87;;;;;;;;;;4999123;28;20124;-66
2024/01/31 13:54:06;;;;;;;7.40;3.57;;;;;;;;;;5000642;28;20036;-65
2024/01/31 13:56:31;;;;;;;6.03;3.50;;;;;;;;;;5015852;28;20474;-65
2024/01/31 13:58:56;;;;;;;6.33;3.70;;;;;;;;;;5011450;28;20386;-65
2024/01/31 14:01:21;;;;;;;4.97;3.10;;;;;;;;;;4998833;28;20092;-65
2024/01/31 14:03:47;;;;;;;6.63;3.93;;;;;;;;;;5003814;28;20030;-65
2024/01/31 14:06:12;;;;;;;5.60;2.97;;;;;;;;;;5005830;28;20032;-65
2024/01/31 14:08:37;;;;;;;6.17;2.80;;;;;;;;;;4988679;28;20405;-65
2024/01/31 14:11:03;;;;;;;7.60;4.17;;;;;;;;;;4986089;28;21401;-66
2024/01/31 14:13:28;;;;;;;6.47;3.43;;;;;;;;;;4986295;28;20056;-65
2024/01/31 14:15:53;;;;;;;6.53;3.57;;;;;;;;;;4984743;28;32610;-66
2024/01/31 14:18:19;;;;;;;5.33;2.50;;;;;;;;;;5006615;28;20030;-65
2024/01/31 14:20:44;;;;;;;6.10;3.70;;;;;;;;;;5007044;28;20484;-65
2024/01/31 14:23:09;;;;;;;6.53;3.60;;;;;;;;;;5005195;28;20022;-65
2024/01/31 14:25:34;;;;;;;7.70;3.67;;;;;;;;;;5002610;28;20058;-66
2024/01/31 14:28:00;;;;;;;9.00;4.70;;;;;;;;;;5005959;28;20057;-66
2024/01/31 14:30:25;;;;;;;6.27;3.70;;;;;;;;;;5006789;28;20025;-66
2024/01/31 14:32:50;;;;;;;6.00;4.03;;;;;;;;;;5007712;28;20037;-66
2024/01/31 14:35:15;;;;;;;5.97;3.70;;;;;;;;;;5007709;28;20394;-66